Time;durP1;ratioP1;P1;durP2;ratioP2;P2;SDS_P1;SDS_P2;PMS_P1;PMS_P2;Temp;Humidity;BMP_temperature;BMP_pressure;BME280_temperature;BME280_humidity;BME280_pressure;Samples;Min_cycle;Max_cycle;Signal;HPM_P1;HPM_P2
2023/06/03 00:00:10;;;;;;;2.85;1.70;;;12.90;92.80;;;;;;5051502;28;20045;-66
2023/06/03 00:02:35;;;;;;;2.58;1.70;;;12.80;92.80;;;;;;5053442;28;20128;-65
2023/06/03 00:05:01;;;;;;;10.10;1.90;;;12.80;92.70;;;;;;5053947;28;20123;-66
2023/06/03 00:07:27;;;;;;;3.38;1.67;;;12.80;92.70;;;;;;5049139;28;20079;-66
2023/06/03 00:09:53;;;;;;;4.53;1.58;;;12.70;92.60;;;;;;5047363;28;20037;-66
2023/06/03 00:12:20;;;;;;;2.88;1.70;;;12.70;92.50;;;;;;5042674;28;20033;-66
2023/06/03 00:14:46;;;;;;;4.28;1.88;;;12.70;92.50;;;;;;5033523;28;20038;-65
2023/06/03 00:17:11;;;;;;;4.90;1.80;;;12.60;92.70;;;;;;5044559;28;20037;-65
2023/06/03 00:19:41;;;;;;;2.85;1.80;;;12.60;92.70;;;;;;5051523;28;20391;-66
2023/06/03 00:22:07;;;;;;;4.20;1.65;;;12.50;92.60;;;;;;5053596;28;20037;-66
2023/06/03 00:24:32;;;;;;;2.38;1.50;;;12.50;92.80;;;;;;5048220;28;20048;-65
2023/06/03 00:26:58;;;;;;;2.00;1.60;;;12.40;92.80;;;;;;5051115;28;20041;-67
2023/06/03 00:29:25;;;;;;;2.40;1.50;;;12.30;92.80;;;;;;5051562;28;20041;-66
2023/06/03 00:31:51;;;;;;;4.40;1.60;;;12.30;92.80;;;;;;5041058;28;20124;-64
2023/06/03 00:34:16;;;;;;;5.10;1.75;;;12.20;92.70;;;;;;5045199;28;20166;-66
2023/06/03 00:36:42;;;;;;;1.92;1.42;;;12.20;92.80;;;;;;5051933;28;20056;-66
2023/06/03 00:39:08;;;;;;;5.95;1.70;;;12.10;92.60;;;;;;5052915;28;20029;-66
2023/06/03 00:41:34;;;;;;;3.65;1.90;;;12.10;92.70;;;;;;5041042;28;20041;-66
2023/06/03 00:44:00;;;;;;;3.33;1.95;;;12.10;92.40;;;;;;5044319;28;20041;-66
2023/06/03 00:46:26;;;;;;;2.58;1.70;;;12.10;92.60;;;;;;5049886;28;20192;-66
2023/06/03 00:48:52;;;;;;;2.47;1.70;;;12.00;92.60;;;;;;5038873;28;20045;-66
2023/06/03 00:51:19;;;;;;;4.93;1.70;;;12.00;92.70;;;;;;5052381;28;20029;-66
2023/06/03 00:53:45;;;;;;;2.42;1.83;;;11.90;92.50;;;;;;5053023;28;20040;-66
2023/06/03 00:56:12;;;;;;;4.35;1.70;;;11.90;92.50;;;;;;5049580;28;20392;-66
2023/06/03 00:58:38;;;;;;;2.25;1.77;;;11.90;92.50;;;;;;5045162;28;20044;-65
2023/06/03 01:01:05;;;;;;;3.05;1.67;;;11.80;92.50;;;;;;5051314;28;20454;-64
2023/06/03 01:03:31;;;;;;;3.50;1.98;;;11.80;92.40;;;;;;5049676;28;20138;-64
2023/06/03 01:06:18;;;;;;;3.55;1.70;;;11.80;92.40;;;;;;5051628;28;20582;-65
2023/06/03 01:08:57;;;;;;;1.98;1.40;;;11.70;92.30;;;;;;5051591;28;20057;-66
2023/06/03 01:11:47;;;;;;;3.40;1.95;;;11.70;92.50;;;;;;5052659;28;20053;-66
2023/06/03 01:14:22;;;;;;;6.20;1.80;;;11.60;92.70;;;;;;5037539;28;20075;-65
2023/06/03 01:16:50;;;;;;;3.72;1.55;;;11.50;92.60;;;;;;5049773;28;20098;-66
2023/06/03 01:19:38;;;;;;;2.33;1.50;;;11.50;92.70;;;;;;5052296;28;20115;-65
2023/06/03 01:22:06;;;;;;;4.22;1.48;;;11.40;92.50;;;;;;5031635;28;20041;-66
2023/06/03 01:24:32;;;;;;;1.98;1.40;;;11.30;92.60;;;;;;5045610;28;20090;-66
2023/06/03 01:26:58;;;;;;;2.28;1.40;;;11.30;92.50;;;;;;5052544;28;20040;-66
2023/06/03 01:29:24;;;;;;;3.75;1.50;;;11.20;92.60;;;;;;5048327;28;20041;-66
2023/06/03 01:31:54;;;;;;;2.90;1.50;;;11.10;92.80;;;;;;5049152;28;20049;-66
2023/06/03 01:34:20;;;;;;;4.35;1.70;;;11.10;92.80;;;;;;5052482;28;20049;-66
2023/06/03 01:36:46;;;;;;;3.53;1.63;;;10.90;92.90;;;;;;5046832;28;20075;-66
2023/06/03 01:39:12;;;;;;;3.42;1.83;;;10.80;93.00;;;;;;5042823;28;20170;-65
2023/06/03 01:41:42;;;;;;;3.55;1.45;;;10.80;92.90;;;;;;5052061;28;20044;-66
2023/06/03 01:44:08;;;;;;;2.00;1.55;;;10.80;93.10;;;;;;5052938;28;20094;-65
2023/06/03 01:46:35;;;;;;;2.13;1.40;;;10.80;93.00;;;;;;5038175;28;20475;-65
2023/06/03 01:49:02;;;;;;;1.80;1.38;;;10.80;93.20;;;;;;5049215;28;20041;-66
2023/06/03 01:51:28;;;;;;;2.10;1.40;;;10.70;93.10;;;;;;5052388;28;20041;-65
2023/06/03 01:53:53;;;;;;;3.00;1.70;;;10.70;93.10;;;;;;5041995;28;20044;-65
2023/06/03 01:56:19;;;;;;;2.38;1.38;;;10.70;93.20;;;;;;5042126;28;20037;-66
2023/06/03 01:58:46;;;;;;;3.78;1.70;;;10.70;93.40;;;;;;5051954;28;20068;-66
2023/06/03 02:01:13;;;;;;;3.35;2.15;;;10.70;93.30;;;;;;5050656;28;20041;-62
2023/06/03 02:03:39;;;;;;;3.35;1.80;;;10.60;93.20;;;;;;5051205;28;20079;-66
2023/06/03 02:06:05;;;;;;;4.00;1.80;;;10.50;93.40;;;;;;5051192;28;20045;-66
2023/06/03 02:08:31;;;;;;;3.40;1.83;;;10.50;93.40;;;;;;5052421;28;20041;-66
2023/06/03 02:10:57;;;;;;;2.08;1.60;;;10.40;93.40;;;;;;5033525;28;20091;-66
2023/06/03 02:13:22;;;;;;;3.88;1.67;;;10.20;93.70;;;;;;5037797;28;20041;-65
2023/06/03 02:15:48;;;;;;;2.33;1.60;;;10.10;93.80;;;;;;5052245;28;20399;-65
2023/06/03 02:18:16;;;;;;;3.28;1.67;;;10.00;93.90;;;;;;5052673;28;20060;-66
2023/06/03 02:20:41;;;;;;;2.13;1.60;;;10.00;93.80;;;;;;5037776;28;20033;-66
2023/06/03 02:23:07;;;;;;;3.83;1.70;;;10.00;93.90;;;;;;5055760;28;20035;-65
2023/06/03 02:25:33;;;;;;;5.07;1.80;;;9.90;94.00;;;;;;5056693;28;20048;-66
2023/06/03 02:27:59;;;;;;;4.85;1.88;;;9.90;94.00;;;;;;5044250;28;20042;-65
2023/06/03 02:30:25;;;;;;;3.15;1.80;;;9.80;94.20;;;;;;5054043;28;20056;-66
2023/06/03 02:32:50;;;;;;;3.75;1.65;;;9.80;94.10;;;;;;5055715;28;20049;-66
2023/06/03 02:35:16;;;;;;;2.70;1.83;;;9.70;94.20;;;;;;5049231;28;20044;-66
2023/06/03 02:37:42;;;;;;;4.05;2.00;;;9.70;94.30;;;;;;5052333;28;20102;-66
2023/06/03 02:40:09;;;;;;;2.63;1.80;;;9.60;94.40;;;;;;5056706;28;20407;-66
2023/06/03 02:42:39;;;;;;;6.25;1.67;;;9.60;94.40;;;;;;5057117;28;20516;-65
2023/06/03 02:45:06;;;;;;;3.60;1.53;;;9.50;94.40;;;;;;5044236;28;20041;-65
2023/06/03 02:47:31;;;;;;;5.72;1.52;;;9.50;94.60;;;;;;5051774;28;20286;-65
2023/06/03 02:49:57;;;;;;;2.30;1.73;;;9.40;94.60;;;;;;5056608;28;20128;-64
2023/06/03 02:52:22;;;;;;;3.60;1.77;;;9.40;94.70;;;;;;5056946;28;20095;-66
2023/06/03 02:54:49;;;;;;;4.07;1.65;;;9.30;94.90;;;;;;5038419;28;20044;-65
2023/06/03 02:57:15;;;;;;;3.70;1.52;;;9.30;95.00;;;;;;5049404;28;20040;-64
2023/06/03 02:59:42;;;;;;;4.07;1.80;;;9.20;95.00;;;;;;5056059;28;20422;-66
2023/06/03 03:02:07;;;;;;;5.15;1.98;;;9.20;95.20;;;;;;5041630;28;20102;-66
2023/06/03 03:04:36;;;;;;;3.58;1.90;;;9.10;95.40;;;;;;5051620;28;20041;-66
2023/06/03 03:07:05;;;;;;;3.70;1.70;;;9.00;95.40;;;;;;5057353;28;20487;-64
2023/06/03 03:09:31;;;;;;;3.67;1.77;;;9.00;95.60;;;;;;5049457;28;20112;-65
2023/06/03 03:11:57;;;;;;;7.53;2.10;;;9.00;95.60;;;;;;5054353;28;20474;-65
2023/06/03 03:14:22;;;;;;;3.40;2.17;;;9.00;95.90;;;;;;5055264;28;20083;-66
2023/06/03 03:16:48;;;;;;;5.95;1.85;;;8.90;95.90;;;;;;5053827;28;20041;-64
2023/06/03 03:19:14;;;;;;;3.47;1.98;;;8.90;96.00;;;;;;5052598;28;20088;-65
2023/06/03 03:21:40;;;;;;;2.83;1.85;;;8.80;96.40;;;;;;5055255;28;20055;-66
2023/06/03 03:24:06;;;;;;;2.97;1.90;;;8.70;96.40;;;;;;5057140;28;20037;-65
2023/06/03 03:26:32;;;;;;;2.55;1.88;;;8.70;96.70;;;;;;5050921;28;20169;-66
2023/06/03 03:28:58;;;;;;;3.70;2.25;;;8.60;96.90;;;;;;5056194;28;20033;-66
2023/06/03 03:31:26;;;;;;;3.03;1.98;;;8.50;97.20;;;;;;5056804;28;20052;-66
2023/06/03 03:33:51;;;;;;;3.65;2.13;;;8.60;97.10;;;;;;5053153;28;20044;-66
2023/06/03 03:36:22;;;;;;;2.47;1.50;;;8.70;97.10;;;;;;5056279;28;20437;-66
2023/06/03 03:38:54;;;;;;;4.32;2.10;;;8.70;97.20;;;;;;5054154;28;20517;-65
2023/06/03 03:41:20;;;;;;;6.50;2.03;;;8.70;97.40;;;;;;5053969;28;20159;-65
2023/06/03 03:43:49;;;;;;;6.57;2.25;;;8.80;97.10;;;;;;5042028;28;20116;-66
2023/06/03 03:46:15;;;;;;;4.50;2.20;;;8.80;97.20;;;;;;5038207;28;20143;-65
2023/06/03 03:48:41;;;;;;;4.10;2.03;;;8.90;97.40;;;;;;5051561;28;20060;-65
2023/06/03 03:51:06;;;;;;;5.45;2.00;;;8.90;97.20;;;;;;5048734;22;20064;-64
2023/06/03 03:53:35;;;;;;;3.08;1.98;;;9.00;97.20;;;;;;5021381;28;20133;-63
2023/06/03 03:56:01;;;;;;;2.80;1.95;;;9.00;97.30;;;;;;5028274;28;20086;-63
2023/06/03 03:58:40;;;;;;;6.50;2.50;;;9.10;97.40;;;;;;5029320;28;20120;-63
2023/06/03 04:01:13;;;;;;;3.78;2.10;;;9.10;97.40;;;;;;5020994;28;20049;-63
2023/06/03 04:03:42;;;;;;;2.97;1.80;;;9.30;97.70;;;;;;5033239;28;20039;-63
2023/06/03 04:06:09;;;;;;;3.28;1.92;;;9.30;97.40;;;;;;5032907;28;20073;-64
2023/06/03 04:08:43;;;;;;;9.00;2.05;;;9.50;97.30;;;;;;5018544;28;20057;-63
2023/06/03 04:11:15;;;;;;;3.05;1.90;;;9.50;97.30;;;;;;5032628;28;20490;-65
2023/06/03 04:13:41;;;;;;;3.00;2.00;;;9.60;97.30;;;;;;5033189;28;20042;-65
2023/06/03 04:16:11;;;;;;;3.53;1.95;;;9.60;97.30;;;;;;5022331;28;20349;-65
2023/06/03 04:18:41;;;;;;;4.75;1.90;;;9.70;97.50;;;;;;5021266;28;20068;-65
2023/06/03 04:21:18;;;;;;;3.63;2.17;;;9.70;97.70;;;;;;5033068;28;20033;-65
2023/06/03 04:23:43;;;;;;;3.00;1.80;;;9.80;97.50;;;;;;5025405;28;20033;-63
2023/06/03 04:26:10;;;;;;;3.80;2.13;;;9.90;97.30;;;;;;5021956;28;20043;-65
2023/06/03 04:28:38;;;;;;;3.40;2.05;;;10.00;97.40;;;;;;5034220;28;20049;-66
2023/06/03 04:31:04;;;;;;;4.13;2.10;;;10.10;97.20;;;;;;5035773;28;20076;-63
2023/06/03 04:33:29;;;;;;;3.38;1.98;;;10.10;97.10;;;;;;5032675;28;20083;-65
2023/06/03 04:35:55;;;;;;;3.17;2.00;;;10.20;97.20;;;;;;5024690;28;20549;-64
2023/06/03 04:38:21;;;;;;;2.75;1.90;;;10.20;97.30;;;;;;5035454;28;20583;-65
2023/06/03 04:40:46;;;;;;;4.18;1.95;;;10.30;97.20;;;;;;5028130;28;20500;-64
2023/06/03 04:43:14;;;;;;;5.13;2.00;;;10.30;97.20;;;;;;5018869;28;20033;-65
2023/06/03 04:45:40;;;;;;;3.17;1.92;;;10.40;97.40;;;;;;5033391;28;20464;-64
2023/06/03 04:48:06;;;;;;;3.60;2.00;;;10.50;97.20;;;;;;5032302;28;20083;-66
2023/06/03 04:50:35;;;;;;;3.38;1.88;;;10.50;97.40;;;;;;5031122;28;20052;-64
2023/06/03 04:53:01;;;;;;;2.95;1.95;;;10.60;97.00;;;;;;5018816;28;20046;-65
2023/06/03 04:55:27;;;;;;;5.50;2.03;;;10.60;97.20;;;;;;5027247;28;20041;-65
2023/06/03 04:57:54;;;;;;;7.20;1.92;;;10.70;97.10;;;;;;5017819;28;20129;-64
2023/06/03 05:00:19;;;;;;;3.47;1.90;;;10.80;97.10;;;;;;5030219;28;20495;-63
2023/06/03 05:02:54;;;;;;;4.88;2.00;;;10.80;97.20;;;;;;5016421;28;20038;-63
2023/06/03 05:05:24;;;;;;;2.65;1.80;;;10.90;97.10;;;;;;5029561;28;20076;-63
2023/06/03 05:07:51;;;;;;;5.45;2.20;;;11.00;97.00;;;;;;5018079;28;20033;-64
2023/06/03 05:10:19;;;;;;;5.00;2.22;;;11.00;97.00;;;;;;5030376;28;20041;-64
2023/06/03 05:12:45;;;;;;;3.35;2.30;;;11.10;97.10;;;;;;5032247;28;20038;-65
2023/06/03 05:15:11;;;;;;;4.07;2.38;;;11.20;96.80;;;;;;5021725;28;20045;-63
2023/06/03 05:17:38;;;;;;;5.45;2.00;;;11.30;96.80;;;;;;5031551;28;20046;-65
2023/06/03 05:20:06;;;;;;;4.78;2.17;;;11.30;96.90;;;;;;5032076;28;20049;-66
2023/06/03 05:22:32;;;;;;;6.03;2.70;;;11.40;96.80;;;;;;5013219;28;20049;-70
2023/06/03 05:24:57;;;;;;;3.15;1.98;;;11.50;97.00;;;;;;5007094;28;20034;-72
2023/06/03 05:27:23;;;;;;;6.28;2.47;;;11.50;96.80;;;;;;5001156;28;20045;-63
2023/06/03 05:29:48;;;;;;;4.57;2.20;;;11.60;97.10;;;;;;5003338;28;20041;-64
2023/06/03 05:32:14;;;;;;;3.50;2.15;;;11.70;96.80;;;;;;5017008;28;20072;-65
2023/06/03 05:34:40;;;;;;;3.92;2.10;;;11.80;96.50;;;;;;5018086;28;20120;-65
2023/06/03 05:37:06;;;;;;;2.90;2.00;;;11.90;96.60;;;;;;5021790;28;20120;-62
2023/06/03 05:39:31;;;;;;;5.03;1.83;;;11.90;96.50;;;;;;5012405;28;20080;-68
2023/06/03 05:41:57;;;;;;;7.47;2.10;;;12.00;96.20;;;;;;5015662;28;20041;-64
2023/06/03 05:44:22;;;;;;;4.00;1.90;;;12.00;96.00;;;;;;5022366;28;20041;-65
2023/06/03 05:46:48;;;;;;;4.63;1.92;;;12.10;96.00;;;;;;5011653;28;20038;-69
2023/06/03 05:49:14;;;;;;;3.13;2.00;;;12.20;95.80;;;;;;5013724;28;20049;-63
2023/06/03 05:51:39;;;;;;;5.30;2.17;;;12.30;95.60;;;;;;5021089;28;20048;-63
2023/06/03 05:54:05;;;;;;;5.35;2.00;;;12.30;95.70;;;;;;5022305;28;20111;-69
2023/06/03 05:56:30;;;;;;;6.40;2.40;;;12.40;95.60;;;;;;5012525;28;20042;-63
2023/06/03 05:58:58;;;;;;;4.63;2.13;;;12.50;95.70;;;;;;5018549;28;20601;-63
2023/06/03 06:01:24;;;;;;;5.78;1.92;;;12.60;95.50;;;;;;5022932;28;20049;-64
2023/06/03 06:03:49;;;;;;;3.45;1.80;;;12.60;95.60;;;;;;5015463;28;20519;-68
2023/06/03 06:06:15;;;;;;;2.83;1.95;;;12.70;95.50;;;;;;5015351;28;20041;-70
2023/06/03 06:08:42;;;;;;;3.92;1.95;;;12.80;95.50;;;;;;5012143;28;20037;-61
2023/06/03 06:11:09;;;;;;;3.88;2.03;;;12.90;95.60;;;;;;4998560;28;20033;-65
2023/06/03 06:13:34;;;;;;;6.63;2.00;;;13.00;95.10;;;;;;5014886;28;20049;-66
2023/06/03 06:16:04;;;;;;;4.32;2.10;;;13.00;95.00;;;;;;5023161;28;20045;-64
2023/06/03 06:18:30;;;;;;;6.40;2.42;;;13.20;95.30;;;;;;5022733;28;20037;-63
2023/06/03 06:20:56;;;;;;;4.47;2.10;;;13.30;94.80;;;;;;5011675;28;20484;-63
2023/06/03 06:23:22;;;;;;;8.07;1.80;;;13.40;94.40;;;;;;5021954;28;20044;-65
2023/06/03 06:25:49;;;;;;;6.15;2.00;;;13.50;94.60;;;;;;5021855;28;20037;-63
2023/06/03 06:28:18;;;;;;;4.18;2.10;;;13.60;94.50;;;;;;5014832;28;20038;-66
2023/06/03 06:30:44;;;;;;;5.15;2.17;;;13.70;94.40;;;;;;5016205;28;20053;-65
2023/06/03 06:33:13;;;;;;;7.63;2.15;;;13.80;94.20;;;;;;5014351;28;20103;-65
2023/06/03 06:35:39;;;;;;;12.05;2.25;;;13.90;94.00;;;;;;5014753;28;20110;-65
2023/06/03 06:38:04;;;;;;;3.80;1.70;;;13.90;94.10;;;;;;5010251;28;20041;-64
2023/06/03 06:40:33;;;;;;;6.35;2.00;;;14.00;93.90;;;;;;5020879;28;20699;-65
2023/06/03 06:42:59;;;;;;;4.15;1.80;;;14.10;94.30;;;;;;5015706;28;20124;-64
2023/06/03 06:45:27;;;;;;;4.03;1.98;;;14.20;93.20;;;;;;5014282;28;21105;-63
2023/06/03 06:48:13;;;;;;;3.30;1.80;;;14.30;93.60;;;;;;5019713;28;20047;-66
2023/06/03 06:50:50;;;;;;;4.28;1.95;;;14.40;92.80;;;;;;5020193;28;20107;-66
2023/06/03 06:53:21;;;;;;;5.10;1.88;;;14.50;92.10;;;;;;5014872;28;20050;-66
2023/06/03 06:55:50;;;;;;;6.30;2.20;;;14.60;92.30;;;;;;5017805;28;20049;-65
2023/06/03 06:58:17;;;;;;;6.18;1.77;;;14.70;92.60;;;;;;5002732;28;20049;-64
2023/06/03 07:00:43;;;;;;;3.90;1.80;;;14.90;92.90;;;;;;5017479;28;20064;-64
2023/06/03 07:03:11;;;;;;;6.82;2.00;;;15.00;91.80;;;;;;5021658;28;20041;-63
2023/06/03 07:05:37;;;;;;;6.45;1.90;;;15.10;92.40;;;;;;5017762;28;20331;-63
2023/06/03 07:08:02;;;;;;;3.95;1.70;;;15.30;92.40;;;;;;5014740;28;20424;-64
2023/06/03 07:10:28;;;;;;;2.92;1.73;;;15.30;91.90;;;;;;5020387;28;20037;-65
2023/06/03 07:12:56;;;;;;;3.97;1.98;;;15.30;91.60;;;;;;5005949;28;20116;-63
2023/06/03 07:15:22;;;;;;;2.88;1.50;;;15.30;90.40;;;;;;5024464;28;20075;-65
2023/06/03 07:17:52;;;;;;;6.38;1.80;;;15.30;91.40;;;;;;5032605;28;20037;-64
2023/06/03 07:20:25;;;;;;;3.97;1.90;;;15.40;91.40;;;;;;5022724;28;20033;-62
2023/06/03 07:22:51;;;;;;;3.67;1.73;;;15.40;91.10;;;;;;5031607;28;20407;-66
2023/06/03 07:25:49;;;;;;;4.50;1.50;;;15.60;91.60;;;;;;5014905;28;21017;-64
2023/06/03 07:28:20;;;;;;;3.33;1.90;;;15.60;91.20;;;;;;5018977;28;20037;-65
2023/06/03 07:30:47;;;;;;;3.08;1.67;;;15.80;91.40;;;;;;5031080;28;20045;-63
2023/06/03 07:33:37;;;;;;;3.50;1.50;;;15.90;91.30;;;;;;5036365;28;20042;-63
2023/06/03 07:36:03;;;;;;;2.72;1.40;;;16.10;90.20;;;;;;5005259;28;20046;-67
2023/06/03 07:38:38;;;;;;;4.05;1.48;;;16.10;87.20;;;;;;5013233;28;20129;-63
2023/06/03 07:41:04;;;;;;;5.03;1.70;;;16.20;89.20;;;;;;5009720;28;20802;-70
2023/06/03 07:43:30;;;;;;;2.42;1.45;;;16.30;90.20;;;;;;5002645;28;20507;-63
2023/06/03 07:45:55;;;;;;;3.65;1.70;;;16.40;89.90;;;;;;5010439;28;20030;-69
2023/06/03 07:48:24;;;;;;;4.82;1.45;;;16.50;89.00;;;;;;5023803;28;21000;-64
2023/06/03 07:50:49;;;;;;;2.92;1.45;;;16.60;89.40;;;;;;5023845;28;20064;-66
2023/06/03 07:53:25;;;;;;;4.63;1.52;;;16.70;89.80;;;;;;5007506;28;20171;-65
2023/06/03 07:55:51;;;;;;;1.88;1.13;;;16.70;88.60;;;;;;5019843;28;20106;-63
2023/06/03 07:58:17;;;;;;;23.08;2.28;;;16.60;88.40;;;;;;5017810;28;20491;-69
2023/06/03 08:00:48;;;;;;;1.90;1.35;;;16.70;89.20;;;;;;5003434;28;20103;-69
2023/06/03 08:03:18;;;;;;;2.60;1.42;;;16.80;85.80;;;;;;5009595;28;20092;-63
2023/06/03 08:05:47;;;;;;;3.88;1.50;;;17.00;84.50;;;;;;5015424;28;20626;-65
2023/06/03 08:08:13;;;;;;;1.50;1.10;;;17.10;84.00;;;;;;5023191;28;20470;-66
2023/06/03 08:10:39;;;;;;;2.03;1.40;;;17.20;84.70;;;;;;5025876;28;20041;-64
2023/06/03 08:13:05;;;;;;;3.83;1.30;;;17.30;86.50;;;;;;5033658;28;20493;-67
2023/06/03 08:15:35;;;;;;;3.00;1.20;;;17.50;84.30;;;;;;5033753;28;20049;-66
2023/06/03 08:18:07;;;;;;;2.47;1.40;;;17.70;83.50;;;;;;5022151;28;20048;-65
2023/06/03 08:20:35;;;;;;;7.00;1.40;;;17.60;82.50;;;;;;5032625;28;20080;-65
2023/06/03 08:23:01;;;;;;;2.72;1.85;;;17.70;84.30;;;;;;5033013;28;20033;-65
2023/06/03 08:25:27;;;;;;;2.47;1.30;;;17.90;81.90;;;;;;5025091;28;20037;-66
2023/06/03 08:27:53;;;;;;;2.63;1.20;;;18.00;82.20;;;;;;5026435;28;20033;-65
2023/06/03 08:30:20;;;;;;;4.32;1.30;;;18.20;83.90;;;;;;5010210;28;20118;-66
2023/06/03 08:32:46;;;;;;;6.88;1.17;;;18.40;83.70;;;;;;5009740;28;20500;-65
2023/06/03 08:35:15;;;;;;;3.00;1.50;;;18.60;83.00;;;;;;5018117;28;20042;-66
2023/06/03 08:37:42;;;;;;;7.22;1.08;;;18.90;82.50;;;;;;5013598;28;20099;-65
2023/06/03 08:40:13;;;;;;;3.22;1.15;;;19.00;78.40;;;;;;5020138;28;20069;-66
2023/06/03 08:42:47;;;;;;;2.05;1.20;;;18.80;75.10;;;;;;5013444;28;20452;-64
2023/06/03 08:45:17;;;;;;;2.70;1.00;;;18.70;75.10;;;;;;5025561;28;20042;-64
2023/06/03 08:48:01;;;;;;;1.92;1.30;;;18.60;74.10;;;;;;5016750;28;20034;-64
2023/06/03 08:50:27;;;;;;;3.33;1.05;;;18.40;76.80;;;;;;5011448;28;20140;-65
2023/06/03 08:52:54;;;;;;;4.72;1.30;;;18.40;78.10;;;;;;5015936;28;20049;-65
2023/06/03 08:55:21;;;;;;;2.20;1.20;;;18.20;76.90;;;;;;5032302;28;20045;-65
2023/06/03 08:58:16;;;;;;;7.95;1.27;;;18.00;73.40;;;;;;5031997;28;20110;-64
2023/06/03 09:00:42;;;;;;;2.53;1.10;;;17.70;72.30;;;;;;5016816;28;20080;-65
2023/06/03 09:03:11;;;;;;;4.05;1.25;;;17.50;71.90;;;;;;5023031;28;20046;-62
2023/06/03 09:05:38;;;;;;;7.07;1.20;;;17.50;75.00;;;;;;5015039;28;20038;-64
2023/06/03 09:08:05;;;;;;;2.63;1.25;;;17.50;74.80;;;;;;5010314;28;20505;-66
2023/06/03 09:10:32;;;;;;;4.93;1.58;;;17.40;74.90;;;;;;5027069;28;20099;-63
2023/06/03 09:12:58;;;;;;;3.55;1.33;;;17.30;73.90;;;;;;5026663;28;20045;-64
2023/06/03 09:15:24;;;;;;;9.55;1.65;;;17.20;72.10;;;;;;5014899;28;20046;-63
2023/06/03 09:17:51;;;;;;;10.30;1.50;;;17.30;75.20;;;;;;5028516;28;20045;-63
2023/06/03 09:20:17;;;;;;;5.35;1.58;;;17.70;76.60;;;;;;5023337;28;20037;-63
2023/06/03 09:22:46;;;;;;;6.43;1.48;;;18.10;75.90;;;;;;5030984;28;20388;-63
2023/06/03 09:25:12;;;;;;;2.60;1.23;;;18.30;71.80;;;;;;5014477;28;20067;-63
2023/06/03 09:27:39;;;;;;;10.45;1.60;;;18.50;73.30;;;;;;5031151;28;20124;-64
2023/06/03 09:30:06;;;;;;;3.47;1.30;;;18.80;73.50;;;;;;5031580;28;20045;-63
2023/06/03 09:32:34;;;;;;;6.45;1.70;;;18.90;72.90;;;;;;5032065;28;20120;-63
2023/06/03 09:35:04;;;;;;;2.35;1.25;;;18.90;73.40;;;;;;5014573;28;20045;-64
2023/06/03 09:37:31;;;;;;;4.65;1.15;;;19.20;75.20;;;;;;5025367;28;20636;-64
2023/06/03 09:39:57;;;;;;;10.07;1.45;;;19.30;74.30;;;;;;5031881;28;20047;-63
2023/06/03 09:42:22;;;;;;;2.33;1.45;;;19.30;73.10;;;;;;5014121;28;20136;-63
2023/06/03 09:44:49;;;;;;;2.75;1.40;;;19.30;72.30;;;;;;5022176;28;20044;-64
2023/06/03 09:47:18;;;;;;;8.43;1.40;;;19.50;73.90;;;;;;5020350;28;20120;-64
2023/06/03 09:50:08;;;;;;;2.00;1.10;;;19.60;73.70;;;;;;5031286;28;20388;-64
2023/06/03 09:52:35;;;;;;;4.80;1.50;;;19.50;65.90;;;;;;5027496;28;20049;-67
2023/06/03 09:55:10;;;;;;;2.17;1.30;;;19.40;72.80;;;;;;5018322;28;20412;-66
2023/06/03 09:57:36;;;;;;;5.40;1.58;;;19.50;69.90;;;;;;5021547;28;20136;-66
2023/06/03 10:00:11;;;;;;;2.13;1.15;;;19.60;72.20;;;;;;5029743;28;20125;-66
2023/06/03 10:02:43;;;;;;;6.35;1.48;;;19.50;69.80;;;;;;5030789;28;21176;-67
2023/06/03 10:05:28;;;;;;;2.20;1.33;;;19.50;68.40;;;;;;5034768;28;20100;-67
2023/06/03 10:07:53;;;;;;;2.70;1.35;;;19.50;70.90;;;;;;5027947;28;20064;-68
2023/06/03 10:10:20;;;;;;;5.10;1.50;;;19.40;70.30;;;;;;5031340;28;20488;-64
2023/06/03 10:12:47;;;;;;;13.65;1.60;;;19.40;71.60;;;;;;5031027;28;20042;-67
2023/06/03 10:15:13;;;;;;;6.32;1.40;;;19.30;70.60;;;;;;5019219;28;20782;-63
2023/06/03 10:17:45;;;;;;;5.57;1.30;;;19.40;72.90;;;;;;5027685;28;20049;-63
2023/06/03 10:20:11;;;;;;;2.22;1.40;;;19.50;70.40;;;;;;5031177;28;20045;-63
2023/06/03 10:22:42;;;;;;;1.85;1.27;;;19.50;71.30;;;;;;5024104;28;20105;-64
2023/06/03 10:25:09;;;;;;;4.57;1.40;;;19.60;69.80;;;;;;5014434;28;20121;-63
2023/06/03 10:27:35;;;;;;;7.30;1.23;;;19.90;72.90;;;;;;5030254;28;20044;-64
2023/06/03 10:30:01;;;;;;;3.92;1.27;;;19.80;70.70;;;;;;5013462;28;20037;-66
2023/06/03 10:32:28;;;;;;;2.70;1.20;;;19.80;70.50;;;;;;5015038;28;20073;-64
2023/06/03 10:34:55;;;;;;;3.03;1.30;;;19.90;71.30;;;;;;5017715;28;20042;-65
2023/06/03 10:37:23;;;;;;;2.83;1.13;;;20.00;70.50;;;;;;5029953;28;20046;-64
2023/06/03 10:39:49;;;;;;;4.53;1.58;;;20.00;67.60;;;;;;5029132;28;20046;-65
2023/06/03 10:42:14;;;;;;;3.10;1.40;;;20.10;68.80;;;;;;5023354;28;20064;-66
2023/06/03 10:44:41;;;;;;;2.75;1.50;;;19.90;67.00;;;;;;5010024;28;20156;-66
2023/06/03 10:47:24;;;;;;;5.18;1.13;;;20.00;68.40;;;;;;5019334;28;20480;-69
2023/06/03 10:49:58;;;;;;;2.15;1.40;;;20.00;64.90;;;;;;5010213;28;20049;-64
2023/06/03 10:52:38;;;;;;;3.47;1.30;;;20.10;69.10;;;;;;5016182;28;20063;-67
2023/06/03 10:55:27;;;;;;;3.95;1.30;;;20.20;68.10;;;;;;5016058;28;20046;-67
2023/06/03 10:58:02;;;;;;;1.90;1.10;;;20.20;67.10;;;;;;5022793;28;20631;-63
2023/06/03 11:01:12;;;;;;;18.85;1.85;;;20.30;66.20;;;;;;5015390;28;20079;-66
2023/06/03 11:03:53;;;;;;;6.00;1.33;;;20.30;65.40;;;;;;5014010;28;20503;-64
2023/06/03 11:06:18;;;;;;;6.53;1.13;;;20.10;61.70;;;;;;5013007;28;20333;-66
2023/06/03 11:09:05;;;;;;;4.00;1.35;;;20.20;66.10;;;;;;5008895;28;20351;-64
2023/06/03 11:11:48;;;;;;;2.03;0.98;;;20.30;65.70;;;;;;5009745;28;20047;-64
2023/06/03 11:14:27;;;;;;;1.75;1.15;;;20.50;67.50;;;;;;5017172;28;20048;-64
2023/06/03 11:16:58;;;;;;;4.70;1.40;;;20.70;67.50;;;;;;5022370;28;20037;-64
2023/06/03 11:19:46;;;;;;;2.78;1.23;;;20.80;66.20;;;;;;5019911;28;20108;-64
2023/06/03 11:22:13;;;;;;;5.18;1.30;;;20.80;65.80;;;;;;5021428;28;20041;-66
2023/06/03 11:24:42;;;;;;;2.42;1.42;;;20.80;67.10;;;;;;5022925;28;20049;-66
2023/06/03 11:27:13;;;;;;;9.18;1.40;;;21.00;67.60;;;;;;5024484;28;20052;-65
2023/06/03 11:29:57;;;;;;;1.63;1.10;;;21.10;68.10;;;;;;5032305;28;20415;-66
2023/06/03 11:32:35;;;;;;;5.57;1.60;;;21.20;67.40;;;;;;5027237;28;20491;-66
2023/06/03 11:35:04;;;;;;;11.27;3.00;;;21.20;66.60;;;;;;5015378;28;20580;-63
2023/06/03 11:37:41;;;;;;;9.68;2.15;;;21.20;66.10;;;;;;5017145;28;20037;-66
2023/06/03 11:40:14;;;;;;;2.90;1.30;;;21.30;65.70;;;;;;5020841;28;20051;-63
2023/06/03 11:42:49;;;;;;;9.25;2.58;;;21.40;65.90;;;;;;5023630;28;20041;-66
2023/06/03 11:45:29;;;;;;;7.22;1.83;;;21.60;68.00;;;;;;5016592;28;20041;-65
2023/06/03 11:48:05;;;;;;;3.45;1.45;;;21.50;65.50;;;;;;5012943;28;20045;-65
2023/06/03 11:50:44;;;;;;;2.03;1.38;;;21.60;66.40;;;;;;5018751;28;20049;-65
2023/06/03 11:53:40;;;;;;;2.53;1.20;;;21.70;64.40;;;;;;5023514;28;20052;-66
2023/06/03 11:56:10;;;;;;;3.33;1.30;;;21.80;63.50;;;;;;5015325;28;20107;-66
2023/06/03 11:58:36;;;;;;;8.30;1.58;;;21.90;64.50;;;;;;5029321;28;20049;-66
2023/06/03 12:01:19;;;;;;;4.50;1.50;;;21.70;65.60;;;;;;5024049;28;20048;-66
2023/06/03 12:04:01;;;;;;;1.92;1.30;;;21.70;63.40;;;;;;5028713;28;20041;-67
2023/06/03 12:06:36;;;;;;;4.93;1.40;;;21.90;66.90;;;;;;5031013;28;20557;-67
2023/06/03 12:09:02;;;;;;;5.40;1.30;;;22.10;63.80;;;;;;5029828;28;20053;-66
2023/06/03 12:11:32;;;;;;;2.38;1.33;;;22.20;66.90;;;;;;5020575;28;20033;-66
2023/06/03 12:13:58;;;;;;;7.25;1.42;;;22.30;66.20;;;;;;5025075;28;20096;-66
2023/06/03 12:16:30;;;;;;;2.38;1.27;;;22.40;67.40;;;;;;5033134;28;20486;-66
2023/06/03 12:18:56;;;;;;;6.85;1.50;;;22.40;61.40;;;;;;5032981;28;20037;-66
2023/06/03 12:21:22;;;;;;;2.90;1.35;;;22.30;65.60;;;;;;5026244;28;20096;-66
2023/06/03 12:23:48;;;;;;;19.23;2.00;;;22.30;64.60;;;;;;5022236;28;20065;-66
2023/06/03 12:26:14;;;;;;;6.55;1.63;;;22.30;64.00;;;;;;5018907;28;20068;-66
2023/06/03 12:28:40;;;;;;;5.22;1.25;;;22.40;65.40;;;;;;5007810;28;20056;-66
2023/06/03 12:31:16;;;;;;;5.63;1.38;;;22.50;64.90;;;;;;5016934;28;20034;-67
2023/06/03 12:33:46;;;;;;;2.85;1.45;;;22.50;63.70;;;;;;5027490;28;20052;-66
2023/06/03 12:36:13;;;;;;;6.72;1.63;;;22.60;63.40;;;;;;5022314;28;20037;-67
2023/06/03 12:38:59;;;;;;;4.53;1.25;;;22.70;66.40;;;;;;5030551;28;20079;-67
2023/06/03 12:41:25;;;;;;;2.25;1.40;;;22.80;63.60;;;;;;5032739;28;20048;-66
2023/06/03 12:44:01;;;;;;;2.40;1.50;;;23.00;65.90;;;;;;5018941;28;20034;-66
2023/06/03 12:46:27;;;;;;;4.90;1.52;;;23.20;64.30;;;;;;5023529;28;20041;-66
2023/06/03 12:48:56;;;;;;;2.45;1.27;;;23.30;64.10;;;;;;5022480;28;20026;-66
2023/06/03 12:51:27;;;;;;;5.60;1.63;;;23.30;65.00;;;;;;5019623;28;20500;-66
2023/06/03 12:53:55;;;;;;;4.65;1.52;;;23.50;65.30;;;;;;5030645;28;20113;-67
2023/06/03 12:56:25;;;;;;;4.10;1.48;;;23.70;65.30;;;;;;5027407;28;20423;-66